This is the latest recevied weather packets stored in our database for station/object WB4YDL. If no packets are shown the sender has not sent any weather packets the latest 10 day(s).
| Time | Temp. | Humidity | Pressure | Rain* | Wind** | Luminosity | Snow |
|---|---|---|---|---|---|---|---|
| 1778079512 | 11.11° C | 89% | 1010 hPa | 0 mm | - | 233 W/m² | - |
| 1778079209 | 11.11° C | 89% | 1010.2 hPa | 0 mm | - | 174 W/m² | - |
| 1778078907 | 11.11° C | 89% | 1010 hPa | 0 mm | - | 182 W/m² | - |
| 1778078603 | 11.11° C | 90% | 1009.7 hPa | 0 mm | - | 194 W/m² | - |
| 1778078302 | 10.56° C | 90% | 1009.8 hPa | 0 mm | - | 209 W/m² | - |
| 1778077998 | 11.11° C | 90% | 1009.6 hPa | 0 mm | - | 228 W/m² | - |
| 1778077696 | 10.56° C | 91% | 1009.4 hPa | 0 mm | - | 215 W/m² | - |
| 1778077394 | 10.56° C | 91% | 1009.1 hPa | 0 mm | - | 280 W/m² | - |
| 1778077092 | 10.56° C | 91% | 1009.2 hPa | 0 mm | - | 229 W/m² | - |
| 1778076790 | 10.56° C | 91% | 1009.3 hPa | 0 mm | - | 215 W/m² | - |
| 1778076488 | 10° C | 92% | 1009.4 hPa | 0 mm | - | 189 W/m² | - |
| 1778076184 | 10° C | 92% | 1009.2 hPa | 0 mm | - | 195 W/m² | - |
| 1778075881 | 10° C | 92% | 1009.5 hPa | 0 mm | - | 164 W/m² | - |
| 1778075577 | 10° C | 92% | 1009.4 hPa | 0 mm | - | 135 W/m² | - |
| 1778075274 | 10° C | 93% | 1009.1 hPa | 0 mm | - | 144 W/m² | - |
| 1778074970 | 10° C | 93% | 1008.9 hPa | 0 mm | - | 179 W/m² | - |
| 1778074668 | 9.44° C | 93% | 1008.8 hPa | 0 mm | - | 162 W/m² | - |
| 1778074364 | 9.44° C | 93% | 1008.7 hPa | 0 mm | - | 145 W/m² | - |
| 1778074061 | 9.44° C | 93% | 1008.7 hPa | 0 mm | - | 128 W/m² | - |
| 1778073759 | 9.44° C | 94% | 1008.4 hPa | 0 mm | - | 119 W/m² | - |
| 1778073457 | 9.44° C | 94% | 1008.4 hPa | 0 mm | - | 110 W/m² | - |
| 1778073152 | 9.44° C | 94% | 1008.4 hPa | 0 mm | - | 118 W/m² | - |
| 1778072849 | 9.44° C | 94% | 1008.2 hPa | 0 mm | - | 92 W/m² | - |
| 1778072546 | 9.44° C | 95% | 1008.1 hPa | 0 mm | - | 132 W/m² | - |
| 1778072244 | 9.44° C | 95% | 1008.2 hPa | 0 mm | - | 141 W/m² | - |
* Rain latest hour (hover to see other rain measurements)
** Current wind speed in m/s (hover to see current wind gust speed)